Time;durP1;ratioP1;P1;durP2;ratioP2;P2;SDS_P1;SDS_P2;PMS_P1;PMS_P2;Temp;Humidity;BMP_temperature;BMP_pressure;BME280_temperature;BME280_humidity;BME280_pressure;Samples;Min_cycle;Max_cycle;Signal;HPM_P1;HPM_P2
2021/12/11 12:30:01;;;;;;;15.17;12.70;;;8.90;76.70;;;;;;5034746;23;20251;-69
2021/12/11 12:32:32;;;;;;;14.23;11.20;;;9.00;77.70;;;;;;5027313;28;20319;-69
2021/12/11 12:35:02;;;;;;;14.10;10.77;;;9.10;76.30;;;;;;5017996;28;20294;-69
2021/12/11 12:37:30;;;;;;;16.50;12.90;;;9.10;73.70;;;;;;5032940;28;20215;-69
2021/12/11 12:40:00;;;;;;;19.40;13.93;;;9.00;73.90;;;;;;5040480;28;20213;-69
2021/12/11 12:42:36;;;;;;;17.83;13.30;;;9.00;75.60;;;;;;5047746;28;20238;-69
2021/12/11 12:45:19;;;;;;;15.70;12.77;;;9.10;76.20;;;;;;5021468;28;20641;-69
2021/12/11 12:47:54;;;;;;;17.67;13.63;;;9.10;76.70;;;;;;5037092;28;20208;-69
2021/12/11 12:50:30;;;;;;;13.53;11.83;;;9.20;77.30;;;;;;5031545;28;20214;-69
2021/12/11 12:52:57;;;;;;;12.77;10.90;;;9.30;76.20;;;;;;5029157;28;20304;-69
2021/12/11 12:55:25;;;;;;;15.33;12.87;;;9.30;75.80;;;;;;5044404;28;20210;-69
2021/12/11 12:57:55;;;;;;;14.67;12.63;;;9.40;76.30;;;;;;5040781;28;20202;-69
2021/12/11 13:00:25;;;;;;;16.17;12.20;;;9.40;75.20;;;;;;5028213;28;20650;-69
2021/12/11 13:02:57;;;;;;;16.77;12.37;;;9.50;75.80;;;;;;5045557;28;20251;-68
2021/12/11 13:05:47;;;;;;;15.07;12.43;;;9.60;75.90;;;;;;5039280;28;20314;-68
2021/12/11 13:08:31;;;;;;;14.13;12.13;;;9.70;75.30;;;;;;5036325;28;20211;-68
2021/12/11 13:11:07;;;;;;;15.40;12.40;;;9.70;75.70;;;;;;5040453;28;20216;-68
2021/12/11 13:13:36;;;;;;;13.63;10.93;;;9.80;75.80;;;;;;5045721;28;20310;-69
2021/12/11 13:16:14;;;;;;;14.17;11.63;;;9.80;74.50;;;;;;5035194;28;20319;-68
2021/12/11 13:18:47;;;;;;;13.03;10.73;;;9.70;73.30;;;;;;5054921;28;20665;-68
2021/12/11 13:21:17;;;;;;;15.40;11.10;;;9.70;74.20;;;;;;5044134;28;20223;-68
2021/12/11 13:23:52;;;;;;;12.37;10.63;;;9.70;74.90;;;;;;5045868;28;20223;-68
2021/12/11 13:26:22;;;;;;;14.23;12.00;;;9.60;74.90;;;;;;5041005;28;20223;-68
2021/12/11 13:28:55;;;;;;;15.83;12.27;;;9.60;75.50;;;;;;5038616;28;20221;-68
2021/12/11 13:31:31;;;;;;;12.13;10.53;;;9.70;76.50;;;;;;5032977;28;20238;-68
2021/12/11 13:33:59;;;;;;;16.93;11.63;;;9.70;75.30;;;;;;5027120;28;20227;-68
2021/12/11 13:36:27;;;;;;;13.47;10.30;;;9.70;74.70;;;;;;5041287;28;20269;-68
2021/12/11 13:38:55;;;;;;;12.27;10.67;;;9.70;74.60;;;;;;5021041;28;20212;-68
2021/12/11 13:41:31;;;;;;;15.37;11.50;;;9.70;74.60;;;;;;5051315;28;20206;-69
2021/12/11 13:44:13;;;;;;;15.40;11.00;;;9.60;73.80;;;;;;5027837;28;20306;-68
2021/12/11 13:46:41;;;;;;;13.87;12.07;;;9.60;75.50;;;;;;5017980;28;20306;-69
2021/12/11 13:49:09;;;;;;;13.37;11.67;;;9.50;75.30;;;;;;5001835;28;20293;-68
2021/12/11 13:51:40;;;;;;;15.67;12.03;;;9.50;75.80;;;;;;5044705;28;20221;-68
2021/12/11 13:54:09;;;;;;;16.53;12.30;;;9.50;75.90;;;;;;5045534;28;20238;-68
2021/12/11 13:56:59;;;;;;;14.67;11.00;;;9.50;76.30;;;;;;5025113;28;20302;-69
2021/12/11 13:59:27;;;;;;;13.77;11.93;;;9.50;75.20;;;;;;5036323;28;20269;-68
2021/12/11 14:01:56;;;;;;;15.03;11.83;;;9.50;76.40;;;;;;5037786;28;20333;-68
2021/12/11 14:04:26;;;;;;;14.93;12.40;;;9.50;77.10;;;;;;5045830;28;20268;-68
2021/12/11 14:07:13;;;;;;;15.80;11.63;;;9.50;76.60;;;;;;5022991;28;20219;-68
2021/12/11 14:09:47;;;;;;;17.37;13.10;;;9.50;77.10;;;;;;5038432;28;20243;-69
2021/12/11 14:12:15;;;;;;;14.80;12.10;;;9.50;77.20;;;;;;5023682;28;20235;-69
2021/12/11 14:14:43;;;;;;;13.93;11.17;;;9.50;77.40;;;;;;5044113;28;20211;-69
2021/12/11 14:17:11;;;;;;;13.90;11.30;;;9.50;76.90;;;;;;5038171;28;20231;-68
2021/12/11 14:19:39;;;;;;;14.13;11.13;;;9.50;77.30;;;;;;5018214;28;20301;-68
2021/12/11 14:22:06;;;;;;;14.43;11.20;;;9.50;76.80;;;;;;5039441;28;20214;-68
2021/12/11 14:24:35;;;;;;;14.77;10.37;;;9.50;76.40;;;;;;5044621;28;20306;-68
2021/12/11 14:27:06;;;;;;;12.63;10.90;;;9.40;76.40;;;;;;5044029;28;20218;-68
2021/12/11 14:29:34;;;;;;;21.57;12.50;;;9.40;76.70;;;;;;5042608;28;20215;-68
2021/12/11 14:32:01;;;;;;;13.23;11.37;;;9.40;76.80;;;;;;5038606;28;20229;-68
2021/12/11 14:34:28;;;;;;;15.27;11.80;;;9.40;77.00;;;;;;5043927;28;20295;-69
2021/12/11 14:36:58;;;;;;;14.97;11.50;;;9.40;77.60;;;;;;5040439;28;20290;-69
2021/12/11 14:39:27;;;;;;;14.97;11.37;;;9.30;78.00;;;;;;5029821;28;20664;-68
2021/12/11 14:41:57;;;;;;;12.77;10.23;;;9.30;78.20;;;;;;5035970;28;20655;-68
2021/12/11 14:44:29;;;;;;;13.00;11.10;;;9.30;77.50;;;;;;5039397;28;20646;-68
2021/12/11 14:47:05;;;;;;;13.93;11.40;;;9.30;77.70;;;;;;5037302;28;20215;-68
2021/12/11 14:49:34;;;;;;;12.93;11.03;;;9.20;76.60;;;;;;5038140;28;20222;-68
2021/12/11 14:52:05;;;;;;;15.20;11.63;;;9.20;76.70;;;;;;5032683;28;20657;-68
2021/12/11 14:54:34;;;;;;;13.77;11.40;;;9.10;76.80;;;;;;5040156;28;20230;-68
2021/12/11 14:57:05;;;;;;;17.50;10.83;;;9.10;77.20;;;;;;5044378;28;20671;-68
2021/12/11 14:59:41;;;;;;;15.40;11.17;;;9.10;77.20;;;;;;5035729;28;20288;-68
2021/12/11 15:02:16;;;;;;;13.53;10.60;;;9.00;77.40;;;;;;5038814;28;20269;-68
2021/12/11 15:04:50;;;;;;;13.17;10.87;;;9.00;77.30;;;;;;5028580;28;20211;-68
2021/12/11 15:07:22;;;;;;;13.97;10.27;;;8.90;77.10;;;;;;5023602;28;20223;-68
2021/12/11 15:09:57;;;;;;;15.17;11.13;;;8.90;77.10;;;;;;5036347;28;20217;-68
2021/12/11 15:12:27;;;;;;;18.00;10.83;;;8.80;77.00;;;;;;5030773;28;20256;-68
2021/12/11 15:14:55;;;;;;;12.97;10.73;;;8.70;77.00;;;;;;5021203;28;20211;-68
2021/12/11 15:17:26;;;;;;;13.43;10.10;;;8.70;77.30;;;;;;5039546;28;20235;-68
2021/12/11 15:19:57;;;;;;;11.70;9.87;;;8.70;77.50;;;;;;5025265;28;20207;-68
2021/12/11 15:22:27;;;;;;;13.43;11.73;;;8.60;77.70;;;;;;5051189;28;20215;-68
2021/12/11 15:24:57;;;;;;;20.70;12.17;;;8.50;77.70;;;;;;5028827;28;20219;-68
2021/12/11 15:27:27;;;;;;;12.27;10.97;;;8.40;77.80;;;;;;5024935;28;20218;-68
2021/12/11 15:29:59;;;;;;;14.10;10.67;;;8.40;77.80;;;;;;5025902;28;20692;-68
2021/12/11 15:32:27;;;;;;;12.80;11.30;;;8.30;78.10;;;;;;5035994;28;20812;-68
2021/12/11 15:35:00;;;;;;;12.47;10.80;;;8.20;78.40;;;;;;5020004;28;20249;-68
2021/12/11 15:37:28;;;;;;;14.10;12.33;;;8.10;78.70;;;;;;5023332;28;20286;-68
2021/12/11 15:39:57;;;;;;;19.53;12.50;;;8.10;79.10;;;;;;5010393;28;20243;-68
2021/12/11 15:42:24;;;;;;;14.17;12.03;;;7.90;79.50;;;;;;5036319;28;20211;-68
2021/12/11 15:44:58;;;;;;;17.83;13.93;;;7.90;80.10;;;;;;5014474;28;20338;-68
2021/12/11 15:47:29;;;;;;;16.70;13.67;;;7.80;80.60;;;;;;5025693;28;20214;-68
2021/12/11 15:49:58;;;;;;;17.67;14.43;;;7.70;81.10;;;;;;5023777;28;20265;-68
2021/12/11 15:52:26;;;;;;;14.60;13.03;;;7.70;81.60;;;;;;5003407;28;20211;-68
2021/12/11 15:54:54;;;;;;;20.70;14.60;;;7.70;81.80;;;;;;5045223;28;20657;-68
2021/12/11 15:57:22;;;;;;;23.30;15.07;;;7.60;81.80;;;;;;5024143;28;20221;-68
2021/12/11 15:59:52;;;;;;;17.90;14.93;;;7.50;82.10;;;;;;5024753;28;20217;-68
2021/12/11 16:02:23;;;;;;;18.70;13.93;;;7.40;82.40;;;;;;5041711;28;20306;-69
2021/12/11 16:04:51;;;;;;;20.37;15.63;;;7.40;82.70;;;;;;5029680;28;20243;-69
2021/12/11 16:07:22;;;;;;;25.57;15.00;;;7.30;82.90;;;;;;5044637;28;20211;-69
2021/12/11 16:09:50;;;;;;;17.93;14.63;;;7.20;83.20;;;;;;5041602;28;20213;-69
2021/12/11 16:12:22;;;;;;;20.20;15.77;;;7.20;83.40;;;;;;5043858;28;20215;-69
2021/12/11 16:15:03;;;;;;;19.77;14.83;;;7.10;83.50;;;;;;4997855;28;20234;-69
2021/12/11 16:17:31;;;;;;;17.93;14.90;;;7.00;83.70;;;;;;5038341;28;20237;-69
2021/12/11 16:20:02;;;;;;;17.23;14.20;;;7.00;83.90;;;;;;5030085;28;20237;-69
2021/12/11 16:22:33;;;;;;;20.27;15.80;;;6.90;84.00;;;;;;5045454;28;20217;-69
2021/12/11 16:25:05;;;;;;;19.13;15.80;;;6.80;84.00;;;;;;5037256;28;20555;-69
2021/12/11 16:27:33;;;;;;;18.50;14.23;;;6.80;84.20;;;;;;5022502;28;20225;-69
2021/12/11 16:30:01;;;;;;;17.60;14.57;;;6.70;84.40;;;;;;5043417;28;20317;-68
2021/12/11 16:32:29;;;;;;;20.47;15.10;;;6.70;84.60;;;;;;5021518;28;20215;-68
2021/12/11 16:34:57;;;;;;;19.60;14.77;;;6.60;84.70;;;;;;5033324;28;20301;-68
2021/12/11 16:37:40;;;;;;;17.63;14.83;;;6.60;84.90;;;;;;5041936;28;20225;-68
2021/12/11 16:40:20;;;;;;;19.17;15.00;;;6.50;85.10;;;;;;5043127;28;20278;-68
2021/12/11 16:43:00;;;;;;;20.83;15.00;;;6.40;85.10;;;;;;5038802;28;20247;-68
2021/12/11 16:45:28;;;;;;;16.97;14.00;;;6.40;85.50;;;;;;5035612;28;20252;-68
2021/12/11 16:47:56;;;;;;;20.90;14.50;;;6.30;85.60;;;;;;5049910;28;20209;-68
2021/12/11 16:50:30;;;;;;;19.60;14.93;;;6.20;85.70;;;;;;5043996;28;20240;-68
2021/12/11 16:52:58;;;;;;;18.53;14.80;;;6.20;86.00;;;;;;5040544;28;20209;-69
2021/12/11 16:55:25;;;;;;;18.67;14.97;;;6.20;86.00;;;;;;5033266;28;20232;-69
2021/12/11 16:57:53;;;;;;;20.50;14.80;;;6.10;86.00;;;;;;5031457;28;20269;-69
2021/12/11 17:00:23;;;;;;;19.63;14.87;;;6.00;86.20;;;;;;5038189;28;20292;-69
2021/12/11 17:02:50;;;;;;;21.80;13.83;;;6.00;86.50;;;;;;5036310;28;20317;-69
2021/12/11 17:05:19;;;;;;;17.13;14.13;;;6.00;86.70;;;;;;5038734;28;20272;-69
2021/12/11 17:07:46;;;;;;;22.43;15.67;;;6.00;86.80;;;;;;5015340;28;20650;-69
2021/12/11 17:10:18;;;;;;;20.87;14.93;;;5.90;86.90;;;;;;5032945;28;20221;-69
2021/12/11 17:12:45;;;;;;;21.63;15.87;;;5.90;87.10;;;;;;5025808;28;20223;-69
2021/12/11 17:15:13;;;;;;;20.20;16.47;;;5.80;87.20;;;;;;5016834;28;20311;-69
2021/12/11 17:17:41;;;;;;;19.70;15.47;;;5.80;87.50;;;;;;5029627;28;20229;-69
2021/12/11 17:20:15;;;;;;;22.93;15.83;;;5.80;87.70;;;;;;5016275;28;20518;-69
2021/12/11 17:22:44;;;;;;;22.17;15.63;;;5.80;87.90;;;;;;5022578;28;20218;-69
2021/12/11 17:25:18;;;;;;;19.97;14.20;;;5.70;87.90;;;;;;5039490;28;20723;-69
2021/12/11 17:27:46;;;;;;;23.97;16.67;;;5.70;88.00;;;;;;5038086;28;20564;-69
2021/12/11 17:30:15;;;;;;;23.20;17.03;;;5.70;88.10;;;;;;5003722;28;20250;-69
2021/12/11 17:32:42;;;;;;;21.43;15.83;;;5.70;88.40;;;;;;5041113;28;20531;-69
2021/12/11 17:35:10;;;;;;;21.87;15.67;;;5.70;88.50;;;;;;5042925;28;20240;-69
2021/12/11 17:37:38;;;;;;;19.70;14.70;;;5.70;88.30;;;;;;5041122;28;20221;-69
2021/12/11 17:40:10;;;;;;;21.87;14.87;;;5.60;87.90;;;;;;5041290;28;20214;-69
2021/12/11 17:42:39;;;;;;;20.77;16.60;;;5.60;88.00;;;;;;5044605;28;20264;-69
2021/12/11 17:45:09;;;;;;;22.23;16.20;;;5.50;88.10;;;;;;5026489;28;20556;-69
2021/12/11 17:47:42;;;;;;;18.63;15.17;;;5.50;88.20;;;;;;5020511;28;20592;-69
2021/12/11 17:50:15;;;;;;;17.27;13.97;;;5.50;88.20;;;;;;5039808;28;20308;-69
2021/12/11 17:52:44;;;;;;;22.83;15.93;;;5.50;88.30;;;;;;5044889;28;20229;-68
2021/12/11 17:55:16;;;;;;;18.27;15.33;;;5.50;88.40;;;;;;5048021;28;20254;-68
2021/12/11 17:57:43;;;;;;;20.83;15.43;;;5.50;88.60;;;;;;5035502;28;20222;-68
2021/12/11 18:00:18;;;;;;;20.30;16.17;;;5.50;88.70;;;;;;5039996;28;20758;-68
2021/12/11 18:02:50;;;;;;;22.33;16.10;;;5.40;88.70;;;;;;5041412;28;20276;-68
2021/12/11 18:05:34;;;;;;;22.47;15.70;;;5.40;88.70;;;;;;5021753;28;20211;-69
2021/12/11 18:08:09;;;;;;;23.67;16.93;;;5.40;88.70;;;;;;5035164;28;20866;-69
2021/12/11 18:11:00;;;;;;;22.40;16.10;;;5.40;88.60;;;;;;5034090;28;20227;-69
2021/12/11 18:13:57;;;;;;;20.80;15.57;;;5.30;88.70;;;;;;5044233;28;20270;-69
2021/12/11 18:16:39;;;;;;;22.83;17.33;;;5.20;88.70;;;;;;5014542;28;20261;-68
2021/12/11 18:19:30;;;;;;;22.57;16.87;;;5.20;88.90;;;;;;5013436;28;20217;-68
2021/12/11 18:22:01;;;;;;;24.37;17.40;;;5.10;89.10;;;;;;5023036;28;20305;-68
2021/12/11 18:24:30;;;;;;;24.37;17.80;;;5.10;89.30;;;;;;5036742;28;20304;-68
2021/12/11 18:27:00;;;;;;;29.47;20.27;;;5.10;89.40;;;;;;5033989;28;20225;-68
2021/12/11 18:29:32;;;;;;;23.73;17.77;;;5.10;89.60;;;;;;5034136;28;20304;-68
2021/12/11 18:32:03;;;;;;;27.87;19.40;;;5.00;89.70;;;;;;5038465;28;20611;-68
2021/12/11 18:34:31;;;;;;;24.73;17.43;;;5.00;89.70;;;;;;5045565;28;20279;-69
2021/12/11 18:37:27;;;;;;;28.43;19.03;;;5.00;89.70;;;;;;5022495;28;20298;-69
2021/12/11 18:39:59;;;;;;;24.43;19.47;;;5.00;89.70;;;;;;5032844;28;20635;-69
2021/12/11 18:42:31;;;;;;;25.20;18.30;;;4.90;89.80;;;;;;5038651;28;20296;-68
2021/12/11 18:45:03;;;;;;;26.63;18.07;;;4.90;90.00;;;;;;5046654;28;20212;-68
2021/12/11 18:47:30;;;;;;;24.17;17.53;;;4.90;90.00;;;;;;5026538;28;20205;-68
2021/12/11 18:49:58;;;;;;;27.00;19.90;;;4.90;89.90;;;;;;5050934;28;20209;-68
2021/12/11 18:52:33;;;;;;;26.87;19.23;;;4.80;89.90;;;;;;5039850;28;20255;-69
2021/12/11 18:55:06;;;;;;;29.07;22.20;;;4.80;90.10;;;;;;5024198;28;20236;-69
2021/12/11 18:57:41;;;;;;;28.87;21.93;;;4.70;90.10;;;;;;5040034;28;20292;-68
2021/12/11 19:00:16;;;;;;;33.90;23.17;;;4.70;90.10;;;;;;5045971;28;20232;-68
2021/12/11 19:02:46;;;;;;;31.07;21.47;;;4.70;90.40;;;;;;5050905;28;20207;-68
2021/12/11 19:05:22;;;;;;;33.43;21.93;;;4.70;90.20;;;;;;5011837;28;20222;-68
2021/12/11 19:07:50;;;;;;;32.30;23.43;;;4.60;90.20;;;;;;5020696;28;20693;-69
2021/12/11 19:10:20;;;;;;;30.73;23.43;;;4.70;90.30;;;;;;5036644;28;20220;-69
2021/12/11 19:12:48;;;;;;;28.60;22.23;;;4.60;90.10;;;;;;5034858;28;20222;-69
2021/12/11 19:15:21;;;;;;;29.40;21.07;;;4.60;90.00;;;;;;5041485;28;20252;-69
2021/12/11 19:17:51;;;;;;;31.27;21.93;;;4.50;90.10;;;;;;5031950;28;20707;-69
2021/12/11 19:20:22;;;;;;;32.10;23.23;;;4.50;90.10;;;;;;5036176;28;20215;-69
2021/12/11 19:22:49;;;;;;;27.43;21.93;;;4.50;90.10;;;;;;5033622;28;20215;-69
2021/12/11 19:25:18;;;;;;;27.20;20.87;;;4.40;90.10;;;;;;5041452;28;20222;-69
2021/12/11 19:27:45;;;;;;;29.67;21.70;;;4.40;90.20;;;;;;5029970;28;20226;-69
2021/12/11 19:30:31;;;;;;;31.43;20.83;;;4.40;90.20;;;;;;5035226;28;20271;-69
2021/12/11 19:33:06;;;;;;;33.10;21.67;;;4.30;90.30;;;;;;5034515;28;20704;-69
2021/12/11 19:35:35;;;;;;;31.10;20.80;;;4.30;90.40;;;;;;5044265;28;20601;-69
2021/12/11 19:38:05;;;;;;;29.87;21.30;;;4.30;90.50;;;;;;5046713;28;20266;-69
2021/12/11 19:40:39;;;;;;;29.07;21.60;;;4.30;90.40;;;;;;5051114;28;20571;-69
2021/12/11 19:43:09;;;;;;;30.73;22.13;;;4.30;90.40;;;;;;5038276;28;20304;-69
2021/12/11 19:45:38;;;;;;;44.40;22.07;;;4.30;90.50;;;;;;5029140;28;20205;-68
2021/12/11 19:48:08;;;;;;;29.23;21.40;;;4.30;90.50;;;;;;5025567;28;20319;-68
2021/12/11 19:50:39;;;;;;;29.37;21.40;;;4.30;90.50;;;;;;5033349;28;20221;-68
2021/12/11 19:53:13;;;;;;;28.03;21.20;;;4.30;90.50;;;;;;5035789;28;20649;-68
2021/12/11 19:55:41;;;;;;;29.07;21.17;;;4.30;90.50;;;;;;5046557;28;20239;-68
2021/12/11 19:58:09;;;;;;;28.73;20.60;;;4.20;90.50;;;;;;5028078;28;20237;-68
2021/12/11 20:00:45;;;;;;;29.80;20.43;;;4.20;90.70;;;;;;5001873;28;20228;-68
2021/12/11 20:03:16;;;;;;;25.97;19.07;;;4.30;90.50;;;;;;5033294;28;20304;-68
2021/12/11 20:05:49;;;;;;;28.47;19.83;;;4.30;90.40;;;;;;5047556;28;20304;-68
2021/12/11 20:08:34;;;;;;;29.03;21.03;;;4.30;90.30;;;;;;5043558;28;20250;-68
2021/12/11 20:11:08;;;;;;;25.20;19.83;;;4.30;90.10;;;;;;5049597;28;20299;-68
2021/12/11 20:13:42;;;;;;;27.83;18.43;;;4.30;89.90;;;;;;5020169;28;20252;-68
2021/12/11 20:16:14;;;;;;;30.80;19.03;;;4.20;89.50;;;;;;5024693;28;20217;-68
2021/12/11 20:18:49;;;;;;;28.30;19.40;;;4.20;89.50;;;;;;5026756;28;20225;-68
2021/12/11 20:21:23;;;;;;;29.00;19.97;;;4.20;89.30;;;;;;5018788;28;20216;-68
2021/12/11 20:23:51;;;;;;;28.90;20.13;;;4.20;89.20;;;;;;5052218;28;20219;-68
2021/12/11 20:26:21;;;;;;;29.93;21.13;;;4.20;89.10;;;;;;5030574;28;20208;-68
2021/12/11 20:28:52;;;;;;;29.10;19.20;;;4.10;89.10;;;;;;5043427;28;20291;-68
2021/12/11 20:31:24;;;;;;;25.77;19.43;;;4.20;88.90;;;;;;5033431;28;20255;-68
2021/12/11 20:33:52;;;;;;;26.50;18.73;;;4.20;88.60;;;;;;5053121;28;20251;-69
2021/12/11 20:36:19;;;;;;;28.33;19.07;;;4.20;88.50;;;;;;5031374;28;20221;-69
2021/12/11 20:38:50;;;;;;;28.27;19.23;;;4.20;88.30;;;;;;5044388;28;20309;-69
2021/12/11 20:41:27;;;;;;;29.20;20.37;;;4.20;88.10;;;;;;5038768;28;20306;-69
2021/12/11 20:43:58;;;;;;;30.20;18.70;;;4.10;87.50;;;;;;5031921;28;20225;-69
2021/12/11 20:46:26;;;;;;;25.67;18.73;;;4.20;87.60;;;;;;5031726;28;20695;-69
2021/12/11 20:48:55;;;;;;;22.20;18.10;;;4.10;87.60;;;;;;5034554;28;20397;-69
2021/12/11 20:51:29;;;;;;;24.53;18.37;;;4.20;87.70;;;;;;5043987;28;20315;-69
2021/12/11 20:54:00;;;;;;;23.80;17.60;;;4.20;87.50;;;;;;5029052;28;20333;-69
2021/12/11 20:56:31;;;;;;;25.20;18.10;;;4.20;87.30;;;;;;5033309;28;20243;-69
2021/12/11 20:59:00;;;;;;;24.77;18.10;;;4.20;87.20;;;;;;5043235;28;20304;-69
2021/12/11 21:01:38;;;;;;;25.70;18.00;;;4.20;87.20;;;;;;5032934;28;20223;-69
2021/12/11 21:04:14;;;;;;;27.93;17.83;;;4.10;87.20;;;;;;5004504;28;20221;-69
2021/12/11 21:06:58;;;;;;;28.43;18.50;;;4.10;87.10;;;;;;5035970;28;20224;-69
2021/12/11 21:09:49;;;;;;;26.60;17.20;;;4.00;87.20;;;;;;5014051;28;20330;-69
2021/12/11 21:12:25;;;;;;;25.70;19.00;;;4.10;87.30;;;;;;5024387;28;20227;-69
2021/12/11 21:14:56;;;;;;;29.13;19.10;;;4.10;87.40;;;;;;5018073;28;20361;-69
2021/12/11 21:17:31;;;;;;;28.03;18.50;;;4.00;87.20;;;;;;5035613;28;20597;-69
2021/12/11 21:20:07;;;;;;;30.60;19.80;;;4.00;87.00;;;;;;5014880;28;20323;-69
2021/12/11 21:22:44;;;;;;;29.43;19.23;;;4.00;86.80;;;;;;5051818;28;20296;-69
2021/12/11 21:25:29;;;;;;;29.50;18.70;;;4.00;86.80;;;;;;5056242;28;20207;-69
2021/12/11 21:28:02;;;;;;;31.37;20.50;;;4.00;86.80;;;;;;5052670;28;20358;-69
2021/12/11 21:30:36;;;;;;;28.40;19.00;;;4.00;86.80;;;;;;5047807;28;20247;-69
2021/12/11 21:33:05;;;;;;;31.60;18.83;;;4.00;86.80;;;;;;5052561;28;20322;-69
2021/12/11 21:35:36;;;;;;;31.50;20.47;;;4.00;86.90;;;;;;5055864;28;20240;-69
2021/12/11 21:38:04;;;;;;;26.57;17.30;;;4.00;86.90;;;;;;5018719;28;20220;-69
2021/12/11 21:40:36;;;;;;;24.87;18.10;;;4.00;86.80;;;;;;5043522;28;20296;-69
2021/12/11 21:43:11;;;;;;;23.40;15.60;;;3.90;86.70;;;;;;5051461;28;20535;-69
2021/12/11 21:45:52;;;;;;;24.17;15.77;;;4.00;86.80;;;;;;5020817;28;20222;-69
2021/12/11 21:48:28;;;;;;;24.67;16.40;;;3.90;86.70;;;;;;5041199;28;20712;-69
2021/12/11 21:51:14;;;;;;;21.53;15.07;;;4.00;86.80;;;;;;5047545;28;20213;-69
2021/12/11 21:53:44;;;;;;;24.87;16.33;;;4.00;86.80;;;;;;5041138;28;20218;-69
2021/12/11 21:56:14;;;;;;;24.27;16.33;;;4.00;86.80;;;;;;5038047;28;20246;-69
2021/12/11 21:58:58;;;;;;;22.80;16.07;;;4.00;86.80;;;;;;5038013;28;20205;-69
2021/12/11 22:01:37;;;;;;;25.37;15.83;;;3.90;86.80;;;;;;5044413;28;20208;-69
2021/12/11 22:04:14;;;;;;;23.97;15.73;;;3.90;86.70;;;;;;5033361;28;20533;-69
2021/12/11 22:06:51;;;;;;;21.67;14.63;;;4.00;86.70;;;;;;5036302;28;20214;-69
2021/12/11 22:09:25;;;;;;;21.97;14.10;;;3.90;86.90;;;;;;5034255;28;20213;-69
2021/12/11 22:11:54;;;;;;;22.67;15.83;;;3.90;87.10;;;;;;5028396;28;20279;-69
2021/12/11 22:14:23;;;;;;;21.10;14.23;;;3.90;87.20;;;;;;5007348;28;20214;-69
2021/12/11 22:17:00;;;;;;;19.53;15.20;;;3.90;87.30;;;;;;5036362;28;20207;-69
2021/12/11 22:19:31;;;;;;;22.30;15.70;;;3.90;87.30;;;;;;5033648;28;20307;-69
2021/12/11 22:21:59;;;;;;;22.07;15.90;;;3.90;87.20;;;;;;5040195;28;20730;-69
2021/12/11 22:24:30;;;;;;;26.23;15.23;;;3.90;87.30;;;;;;5049193;28;20765;-69
2021/12/11 22:27:14;;;;;;;22.53;14.77;;;3.80;88.10;;;;;;5026618;28;20311;-68
2021/12/11 22:29:51;;;;;;;19.30;14.03;;;3.80;87.70;;;;;;5035171;28;20273;-68
2021/12/11 22:32:20;;;;;;;21.63;14.73;;;3.80;87.90;;;;;;5044720;28;20295;-68
2021/12/11 22:34:50;;;;;;;21.33;14.33;;;3.80;88.10;;;;;;5046495;28;20775;-68
2021/12/11 22:37:22;;;;;;;21.67;14.10;;;3.70;88.20;;;;;;5033271;28;20228;-69
2021/12/11 22:39:55;;;;;;;19.37;14.63;;;3.80;88.30;;;;;;5035527;28;20238;-69
2021/12/11 22:42:26;;;;;;;19.63;15.20;;;3.70;88.30;;;;;;5045716;28;20290;-69
2021/12/11 22:44:59;;;;;;;22.67;15.23;;;3.70;88.30;;;;;;5029576;28;20229;-69
2021/12/11 22:47:36;;;;;;;26.53;16.57;;;3.70;88.30;;;;;;5035527;28;20209;-69
2021/12/11 22:50:27;;;;;;;23.53;14.87;;;3.60;88.30;;;;;;4997303;28;20230;-68
2021/12/11 22:52:58;;;;;;;24.03;16.20;;;3.60;88.60;;;;;;5023013;28;20623;-68
2021/12/11 22:55:34;;;;;;;26.03;16.27;;;3.50;88.60;;;;;;5048350;28;20227;-69
2021/12/11 22:58:06;;;;;;;22.73;16.53;;;3.50;88.70;;;;;;5030843;28;20538;-68
2021/12/11 23:00:40;;;;;;;21.50;15.87;;;3.50;88.90;;;;;;5032302;28;20199;-68
2021/12/11 23:03:12;;;;;;;21.77;14.97;;;3.50;88.90;;;;;;5042480;28;20315;-68
2021/12/11 23:05:41;;;;;;;26.17;16.30;;;3.40;88.80;;;;;;5041961;28;20234;-68
2021/12/11 23:08:11;;;;;;;23.00;15.40;;;3.40;89.00;;;;;;5018618;28;20219;-68
2021/12/11 23:10:48;;;;;;;19.83;14.23;;;3.30;89.00;;;;;;5035090;28;20215;-68
2021/12/11 23:13:21;;;;;;;26.23;15.63;;;3.30;89.20;;;;;;5045570;28;20647;-68
2021/12/11 23:15:56;;;;;;;20.67;14.03;;;3.30;89.30;;;;;;5046203;28;20232;-68
2021/12/11 23:18:26;;;;;;;19.00;14.37;;;3.30;89.10;;;;;;5020258;28;20617;-68
2021/12/11 23:21:01;;;;;;;21.97;13.70;;;3.30;89.10;;;;;;5034676;28;20658;-68
2021/12/11 23:23:40;;;;;;;20.80;13.97;;;3.20;89.10;;;;;;5041210;28;20550;-68
2021/12/11 23:26:20;;;;;;;20.00;13.53;;;3.20;89.30;;;;;;5040092;28;20219;-69
2021/12/11 23:29:22;;;;;;;21.07;13.90;;;3.20;89.50;;;;;;5039780;28;20327;-69
2021/12/11 23:31:55;;;;;;;19.50;13.83;;;3.20;89.70;;;;;;5021467;28;20321;-69
2021/12/11 23:34:31;;;;;;;16.87;13.07;;;3.20;89.70;;;;;;5025838;28;20761;-69
2021/12/11 23:37:01;;;;;;;18.50;12.20;;;3.20;89.60;;;;;;5039676;28;20290;-69
2021/12/11 23:39:51;;;;;;;21.90;12.90;;;3.20;89.60;;;;;;5034327;28;20228;-69
2021/12/11 23:42:45;;;;;;;20.00;13.33;;;3.10;89.60;;;;;;5004818;28;20224;-69
2021/12/11 23:45:20;;;;;;;16.53;11.90;;;3.10;89.50;;;;;;5026924;28;20531;-69
2021/12/11 23:47:52;;;;;;;18.53;11.63;;;3.10;89.50;;;;;;5030028;28;20556;-69
2021/12/11 23:50:32;;;;;;;20.23;12.53;;;3.00;89.40;;;;;;5015990;28;20215;-69
2021/12/11 23:53:00;;;;;;;16.20;11.37;;;3.00;89.60;;;;;;5019524;28;20247;-69
2021/12/11 23:55:33;;;;;;;16.40;11.40;;;3.00;89.60;;;;;;5043997;28;20230;-69
2021/12/11 23:58:02;;;;;;;17.00;11.40;;;3.00;89.80;;;;;;5045795;28;20650;-69
